createdAt,value
2017-12-10T00:00:31.496Z,98.01
2017-12-10T00:01:31.007Z,97.82
2017-12-10T00:03:23.922Z,98.01
2017-12-10T00:04:23.951Z,98.54
2017-12-10T00:06:18.440Z,97.97
2017-12-10T00:07:18.447Z,98.35
2017-12-10T00:09:12.448Z,98.30
2017-12-10T00:10:12.519Z,98.06
2017-12-10T00:12:06.408Z,98.06
2017-12-10T00:13:06.393Z,97.63
2017-12-10T00:14:59.936Z,97.97
2017-12-10T00:15:59.480Z,98.11
2017-12-10T00:17:54.039Z,97.59
2017-12-10T00:18:53.976Z,97.87
2017-12-10T00:20:47.504Z,97.78
2017-12-10T00:21:47.521Z,97.87
2017-12-10T00:23:40.490Z,97.63
2017-12-10T00:24:40.473Z,97.21
2017-12-10T00:26:33.441Z,97.49
2017-12-10T00:27:33.433Z,97.25
2017-12-10T00:29:27.922Z,97.59
2017-12-10T00:30:27.953Z,97.35
2017-12-10T00:32:21.923Z,97.97
2017-12-10T00:33:21.921Z,96.69
2017-12-10T00:35:14.913Z,97.21
2017-12-10T00:36:14.929Z,96.97
2017-12-10T00:38:08.005Z,96.73
2017-12-10T00:39:08.354Z,97.82
2017-12-10T00:41:02.410Z,96.83
2017-12-10T00:42:02.393Z,96.73
2017-12-10T00:43:56.857Z,96.69
2017-12-10T00:44:56.906Z,96.59
2017-12-10T00:46:50.489Z,96.59
2017-12-10T00:47:50.442Z,96.88
2017-12-10T00:49:44.994Z,96.73
2017-12-10T00:50:44.937Z,96.69
2017-12-10T00:52:38.922Z,96.83
2017-12-10T00:53:38.897Z,96.40
2017-12-10T00:55:33.417Z,96.88
2017-12-10T00:56:33.385Z,97.02
2017-12-10T00:58:26.938Z,96.64
2017-12-10T00:59:26.962Z,97.02
2017-12-10T01:01:20.361Z,97.11
2017-12-10T01:02:20.377Z,96.36
2017-12-10T01:04:13.954Z,96.83
2017-12-10T01:05:13.938Z,96.64
2017-12-10T01:07:07.065Z,97.11
2017-12-10T01:08:07.114Z,96.64
2017-12-10T01:10:01.507Z,96.83
2017-12-10T01:11:01.516Z,96.73
2017-12-10T01:12:55.099Z,96.36
2017-12-10T01:13:55.475Z,96.12
2017-12-10T01:15:47.955Z,96.83
2017-12-10T01:16:48.523Z,96.26
2017-12-10T01:18:40.867Z,96.83
2017-12-10T01:19:40.906Z,96.45
2017-12-10T01:21:33.923Z,96.26
2017-12-10T01:22:33.931Z,96.45
2017-12-10T01:24:26.851Z,96.55
2017-12-10T01:25:26.859Z,96.73
2017-12-10T01:27:19.843Z,96.36
2017-12-10T01:28:19.835Z,96.64
2017-12-10T01:30:14.292Z,95.60
2017-12-10T01:31:14.332Z,96.12
2017-12-10T01:33:08.871Z,96.17
2017-12-10T01:34:08.795Z,95.83
2017-12-10T01:36:02.484Z,96.31
2017-12-10T01:37:02.492Z,96.12
2017-12-10T01:38:57.011Z,96.07
2017-12-10T01:39:56.996Z,95.88
2017-12-10T01:41:51.427Z,96.21
2017-12-10T01:42:51.451Z,95.74
2017-12-10T01:44:45.011Z,96.40
2017-12-10T01:45:45.103Z,96.21
2017-12-10T01:47:40.908Z,96.21
2017-12-10T01:48:40.932Z,96.31
2017-12-10T01:50:34.524Z,95.93
2017-12-10T01:51:34.508Z,96.12
2017-12-10T01:53:27.437Z,95.64
2017-12-10T01:54:27.428Z,95.93
2017-12-10T01:56:20.382Z,96.12
2017-12-10T01:57:20.364Z,96.12
2017-12-10T01:59:13.356Z,96.36
2017-12-10T02:00:13.332Z,95.93
2017-12-10T02:02:07.820Z,95.79
2017-12-10T02:03:07.844Z,95.22
2017-12-10T02:05:01.292Z,95.45
2017-12-10T02:06:01.316Z,95.31
2017-12-10T02:07:54.397Z,95.79
2017-12-10T02:08:54.316Z,95.36
2017-12-10T02:10:48.732Z,95.64
2017-12-10T02:11:48.757Z,95.41
2017-12-10T02:13:43.205Z,94.89
2017-12-10T02:14:43.229Z,95.22
2017-12-10T02:16:37.661Z,95.55
2017-12-10T02:17:37.725Z,95.03
2017-12-10T02:19:31.141Z,95.12
2017-12-10T02:20:31.133Z,95.12
2017-12-10T02:22:25.597Z,94.60
2017-12-10T02:23:25.655Z,94.79
2017-12-10T02:25:20.109Z,94.98
2017-12-10T02:26:20.101Z,95.12
2017-12-10T02:28:14.549Z,95.03
2017-12-10T02:29:14.599Z,94.98
2017-12-10T02:31:08.173Z,94.18
2017-12-10T02:32:08.127Z,94.74
2017-12-10T02:34:01.125Z,95.07
2017-12-10T02:35:01.137Z,94.74
2017-12-10T02:36:54.120Z,94.65
2017-12-10T02:37:54.307Z,94.84
2017-12-10T02:39:47.185Z,94.70
2017-12-10T02:40:47.123Z,94.60
2017-12-10T02:42:40.068Z,94.65
2017-12-10T02:43:40.089Z,94.93
2017-12-10T02:45:32.985Z,94.65
2017-12-10T02:46:33.025Z,94.84
2017-12-10T02:48:26.001Z,94.93
2017-12-10T02:49:25.985Z,94.84
2017-12-10T02:51:19.067Z,95.03
2017-12-10T02:52:19.002Z,94.93
2017-12-10T02:54:12.041Z,94.93
2017-12-10T02:55:12.017Z,94.56
2017-12-10T02:57:04.985Z,94.74
2017-12-10T02:58:04.993Z,94.46
2017-12-10T02:59:58.521Z,94.74
2017-12-10T03:00:58.529Z,94.93
2017-12-10T03:02:52.129Z,94.56
2017-12-10T03:03:52.241Z,94.56
2017-12-10T03:05:48.065Z,95.12
2017-12-10T03:06:48.122Z,94.93
2017-12-10T03:08:42.554Z,94.93
2017-12-10T03:09:41.627Z,94.65
2017-12-10T03:11:36.161Z,94.93
2017-12-10T03:12:36.170Z,94.93
2017-12-10T03:14:29.738Z,95.22
2017-12-10T03:15:29.725Z,94.74
2017-12-10T03:17:23.722Z,95.12
2017-12-10T03:18:23.706Z,94.74
2017-12-10T03:20:16.762Z,94.93
2017-12-10T03:21:16.738Z,94.93
2017-12-10T03:23:11.210Z,94.27
2017-12-10T03:24:11.203Z,94.65
2017-12-10T03:26:05.666Z,94.37
2017-12-10T03:27:05.650Z,94.56
2017-12-10T03:28:59.235Z,95.03
2017-12-10T03:29:59.218Z,95.03
2017-12-10T03:31:52.155Z,94.93
2017-12-10T03:32:52.167Z,94.93
2017-12-10T03:34:45.101Z,95.03
2017-12-10T03:35:45.107Z,95.22
2017-12-10T03:37:41.067Z,95.03
2017-12-10T03:38:41.091Z,94.84
2017-12-10T03:40:34.555Z,94.84
2017-12-10T03:41:34.574Z,94.74
2017-12-10T03:43:27.643Z,94.93
2017-12-10T03:44:27.603Z,94.37
2017-12-10T03:46:20.563Z,95.03
2017-12-10T03:47:20.651Z,94.93
2017-12-10T03:49:15.067Z,94.65
2017-12-10T03:50:15.019Z,95.12
2017-12-10T03:52:09.059Z,94.93
2017-12-10T03:53:09.483Z,95.12
2017-12-10T03:55:02.124Z,95.03
2017-12-10T03:56:02.999Z,94.93
2017-12-10T03:57:55.004Z,95.22
2017-12-10T03:58:54.980Z,94.84
2017-12-10T04:00:49.004Z,94.84
2017-12-10T04:01:47.980Z,95.22
2017-12-10T04:03:41.052Z,95.22
2017-12-10T04:04:41.043Z,94.93
2017-12-10T04:06:35.380Z,94.56
2017-12-10T04:07:35.396Z,94.84
2017-12-10T04:09:29.436Z,95.03
2017-12-10T04:10:29.428Z,94.56
2017-12-10T04:12:23.892Z,94.65
2017-12-10T04:13:23.869Z,94.56
2017-12-10T04:15:17.487Z,94.74
2017-12-10T04:16:17.526Z,95.03
2017-12-10T04:18:10.433Z,95.41
2017-12-10T04:19:10.434Z,95.31
2017-12-10T04:21:04.894Z,95.12
2017-12-10T04:22:04.920Z,95.12
2017-12-10T04:23:58.937Z,95.03
2017-12-10T04:24:58.946Z,95.41
2017-12-10T04:26:52.372Z,95.60
2017-12-10T04:27:52.377Z,95.12
2017-12-10T04:29:45.881Z,94.37
2017-12-10T04:30:46.345Z,94.65
2017-12-10T04:32:40.345Z,94.84
2017-12-10T04:33:40.353Z,94.93
2017-12-10T04:35:37.841Z,94.65
2017-12-10T04:36:34.953Z,94.74
2017-12-10T04:38:28.362Z,94.74
2017-12-10T04:39:28.417Z,94.93
2017-12-10T04:41:22.005Z,94.93
2017-12-10T04:42:22.051Z,94.84
2017-12-10T04:44:14.954Z,94.56
2017-12-10T04:45:14.949Z,95.03
2017-12-10T04:47:09.404Z,95.22
2017-12-10T04:48:09.426Z,95.41
2017-12-10T04:50:02.963Z,95.12
2017-12-10T04:51:03.003Z,95.41
2017-12-10T04:52:57.499Z,95.88
2017-12-10T04:53:57.475Z,95.60
2017-12-10T04:55:52.059Z,95.69
2017-12-10T04:56:52.139Z,95.88
2017-12-10T04:58:45.980Z,95.69
2017-12-10T04:59:44.971Z,95.69
2017-12-10T05:01:39.027Z,95.69
2017-12-10T05:02:38.996Z,95.41
2017-12-10T05:04:34.972Z,95.50
2017-12-10T05:05:34.964Z,95.41
2017-12-10T05:07:28.970Z,95.98
2017-12-10T05:08:28.436Z,95.98
2017-12-10T05:10:23.020Z,96.36
2017-12-10T05:11:21.436Z,95.69
2017-12-10T05:13:14.349Z,95.69
2017-12-10T05:14:14.420Z,95.69
2017-12-10T05:16:07.468Z,96.55
2017-12-10T05:17:07.413Z,96.55
2017-12-10T05:19:01.876Z,96.45
2017-12-10T05:20:01.901Z,96.73
2017-12-10T05:21:56.896Z,96.36
2017-12-10T05:22:55.925Z,96.64
2017-12-10T05:24:48.973Z,96.83
2017-12-10T05:25:48.981Z,97.02
2017-12-10T05:27:43.373Z,95.98
2017-12-10T05:28:43.381Z,95.79
2017-12-10T05:30:37.812Z,96.64
2017-12-10T05:31:37.846Z,96.17
2017-12-10T05:33:32.540Z,96.73
2017-12-10T05:34:31.452Z,96.73
2017-12-10T05:36:24.333Z,96.64
2017-12-10T05:37:24.941Z,96.64
2017-12-10T05:39:17.358Z,97.02
2017-12-10T05:40:17.373Z,96.64
2017-12-10T05:42:10.268Z,97.02
2017-12-10T05:43:10.300Z,96.73
2017-12-10T05:45:03.372Z,96.73
2017-12-10T05:46:03.788Z,97.02
2017-12-10T05:47:56.500Z,95.98
2017-12-10T05:48:56.526Z,96.07
2017-12-10T05:50:49.500Z,96.64
2017-12-10T05:51:49.477Z,96.83
2017-12-10T05:53:42.482Z,97.11
2017-12-10T05:54:42.486Z,96.55
2017-12-10T05:56:36.972Z,96.17
2017-12-10T05:57:36.989Z,96.64
2017-12-10T05:59:30.509Z,96.73
2017-12-10T06:00:30.509Z,97.11
2017-12-10T06:02:23.533Z,96.83
2017-12-10T06:03:23.485Z,96.64
2017-12-10T06:05:16.485Z,97.02
2017-12-10T06:06:16.453Z,96.55
2017-12-10T06:08:09.389Z,96.55
2017-12-10T06:09:09.446Z,96.64
2017-12-10T06:11:05.423Z,96.73
2017-12-10T06:12:05.391Z,96.64
2017-12-10T06:13:59.350Z,96.83
2017-12-10T06:14:59.382Z,96.64
2017-12-10T06:16:52.390Z,96.55
2017-12-10T06:17:52.846Z,96.73
2017-12-10T06:19:45.310Z,97.02
2017-12-10T06:20:45.326Z,96.83
2017-12-10T06:22:38.295Z,96.83
2017-12-10T06:23:38.286Z,97.02
2017-12-10T06:25:31.382Z,97.21
2017-12-10T06:26:31.319Z,96.92
2017-12-10T06:28:24.187Z,96.83
2017-12-10T06:29:24.212Z,96.36
2017-12-10T06:31:18.708Z,97.11
2017-12-10T06:32:18.724Z,96.92
2017-12-10T06:34:12.163Z,96.73
2017-12-10T06:35:12.187Z,97.02
2017-12-10T06:37:05.195Z,96.83
2017-12-10T06:38:05.303Z,96.83
2017-12-10T06:39:58.178Z,97.11
2017-12-10T06:40:58.233Z,97.21
2017-12-10T06:42:51.714Z,97.30
2017-12-10T06:43:51.730Z,96.73
2017-12-10T06:45:47.674Z,96.78
2017-12-10T06:46:47.674Z,97.35
2017-12-10T06:48:41.146Z,97.97
2017-12-10T06:49:41.177Z,97.68
2017-12-10T06:51:35.882Z,97.92
2017-12-10T06:52:35.874Z,96.92
2017-12-10T06:54:30.378Z,97.02
2017-12-10T06:55:30.362Z,97.40
2017-12-10T06:57:24.809Z,97.11
2017-12-10T06:58:24.833Z,97.78
2017-12-10T07:00:19.355Z,97.11
2017-12-10T07:01:19.402Z,96.97
2017-12-10T07:03:12.291Z,97.44
2017-12-10T07:04:12.506Z,98.20
2017-12-10T07:06:05.907Z,97.73
2017-12-10T07:07:05.819Z,98.30
2017-12-10T07:09:00.283Z,97.63
2017-12-10T07:10:00.275Z,98.11
2017-12-10T07:11:54.813Z,97.82
2017-12-10T07:12:54.770Z,98.11
2017-12-10T07:14:50.787Z,98.68
2017-12-10T07:15:50.741Z,98.01
2017-12-10T07:17:45.203Z,97.82
2017-12-10T07:18:45.227Z,97.92
2017-12-10T07:20:39.684Z,98.01
2017-12-10T07:21:40.132Z,98.20
2017-12-10T07:23:34.205Z,98.39
2017-12-10T07:24:34.189Z,98.11
2017-12-10T07:26:27.809Z,98.68
2017-12-10T07:27:27.904Z,98.20
2017-12-10T07:29:22.190Z,98.11
2017-12-10T07:30:22.181Z,98.39
2017-12-10T07:32:18.172Z,98.20
2017-12-10T07:33:18.171Z,98.01
2017-12-10T07:35:12.610Z,98.39
2017-12-10T07:36:12.642Z,97.82
2017-12-10T07:38:07.121Z,98.11
2017-12-10T07:39:07.137Z,98.20
2017-12-10T07:41:01.610Z,98.01
2017-12-10T07:42:01.602Z,97.82
2017-12-10T07:43:56.092Z,97.87
2017-12-10T07:44:56.091Z,96.97
2017-12-10T07:46:50.538Z,97.25
2017-12-10T07:47:50.578Z,97.40
2017-12-10T07:49:46.514Z,97.35
2017-12-10T07:50:46.539Z,97.73
2017-12-10T07:52:40.557Z,97.78
2017-12-10T07:53:40.139Z,97.59
2017-12-10T07:55:35.074Z,96.55
2017-12-10T07:56:35.038Z,96.55
2017-12-10T07:58:30.987Z,97.11
2017-12-10T07:59:31.010Z,97.11
2017-12-10T08:01:26.995Z,96.92
2017-12-10T08:02:26.971Z,97.02
2017-12-10T08:04:20.416Z,96.92
2017-12-10T08:05:20.450Z,96.45
2017-12-10T08:07:14.914Z,96.73
2017-12-10T08:08:14.922Z,96.83
2017-12-10T08:10:09.370Z,96.45
2017-12-10T08:11:09.402Z,96.55
2017-12-10T08:13:05.362Z,95.69
2017-12-10T08:14:05.355Z,95.69
2017-12-10T08:15:59.842Z,96.26
2017-12-10T08:16:59.850Z,95.79
2017-12-10T08:18:54.330Z,95.22
2017-12-10T08:19:54.330Z,95.22
2017-12-10T08:21:48.795Z,94.93
2017-12-10T08:22:48.810Z,95.03
2017-12-10T08:24:43.259Z,95.03
2017-12-10T08:25:43.275Z,94.84
2017-12-10T08:27:37.706Z,94.93
2017-12-10T08:28:37.731Z,94.65
2017-12-10T08:30:32.225Z,94.56
2017-12-10T08:31:32.219Z,94.56
2017-12-10T08:33:26.651Z,93.99
2017-12-10T08:34:26.691Z,93.89
2017-12-10T08:36:21.171Z,94.93
2017-12-10T08:37:21.163Z,94.74
2017-12-10T08:39:15.612Z,94.08
2017-12-10T08:40:15.643Z,93.70
2017-12-10T08:42:11.619Z,93.04
2017-12-10T08:43:11.623Z,93.42
2017-12-10T08:45:06.060Z,93.32
2017-12-10T08:46:06.084Z,93.61
2017-12-10T08:48:00.556Z,92.94
2017-12-10T08:49:00.556Z,93.13
2017-12-10T08:50:55.015Z,93.23
2017-12-10T08:51:55.020Z,92.85
2017-12-10T08:53:49.507Z,92.76
2017-12-10T08:54:49.508Z,92.66
2017-12-10T08:56:43.996Z,93.23
2017-12-10T08:57:43.968Z,92.66
2017-12-10T08:59:38.444Z,92.66
2017-12-10T09:00:38.444Z,92.66
2017-12-10T09:02:32.932Z,92.57
2017-12-10T09:03:32.940Z,92.71
2017-12-10T09:05:27.381Z,92.14
2017-12-10T09:06:27.428Z,91.85
2017-12-10T09:08:21.884Z,92.04
2017-12-10T09:09:21.877Z,92.23
2017-12-10T09:11:16.350Z,91.47
2017-12-10T09:12:16.366Z,91.85
2017-12-10T09:14:10.829Z,91.66
2017-12-10T09:15:10.853Z,91.95
2017-12-10T09:17:05.277Z,91.66
2017-12-10T09:18:05.309Z,91.28
2017-12-10T09:19:59.781Z,91.95
2017-12-10T09:20:59.789Z,91.28
2017-12-10T09:22:54.237Z,91.09
2017-12-10T09:23:54.261Z,90.91
2017-12-10T09:25:48.741Z,90.81
2017-12-10T09:26:48.741Z,91.09
2017-12-10T09:28:43.221Z,90.53
2017-12-10T09:29:43.205Z,90.62
2017-12-10T09:31:37.767Z,90.15
2017-12-10T09:32:37.686Z,90.53
2017-12-10T09:34:32.126Z,90.43
2017-12-10T09:35:32.157Z,90.91
2017-12-10T09:37:26.654Z,90.81
2017-12-10T09:38:26.629Z,90.81
2017-12-10T09:40:21.102Z,90.43
2017-12-10T09:41:21.110Z,90.43
2017-12-10T09:43:17.207Z,90.15
2017-12-10T09:44:17.182Z,90.20
2017-12-10T09:46:11.638Z,90.62
2017-12-10T09:47:11.662Z,90.91
2017-12-10T09:49:06.135Z,90.24
2017-12-10T09:50:06.118Z,90.72
2017-12-10T09:52:00.567Z,90.43
2017-12-10T09:53:00.623Z,89.72
2017-12-10T09:54:56.583Z,89.96
2017-12-10T09:55:56.575Z,90.62
2017-12-10T09:57:51.047Z,90.34
2017-12-10T09:58:51.072Z,90.15
2017-12-10T10:00:47.031Z,90.24
2017-12-10T10:01:47.023Z,90.34
2017-12-10T10:03:41.510Z,90.05
2017-12-10T10:04:41.511Z,91.00
2017-12-10T10:06:37.472Z,90.72
2017-12-10T10:07:37.463Z,90.05
2017-12-10T10:09:31.967Z,89.86
2017-12-10T10:10:31.959Z,90.34
2017-12-10T10:12:26.391Z,90.34
2017-12-10T10:13:26.423Z,90.34
2017-12-10T10:15:22.383Z,90.24
2017-12-10T10:16:22.399Z,89.67
2017-12-10T10:18:16.856Z,89.77
2017-12-10T10:19:16.871Z,89.77
2017-12-10T10:21:11.328Z,89.67
2017-12-10T10:22:11.360Z,89.96
2017-12-10T10:24:05.784Z,89.58
2017-12-10T10:25:05.816Z,89.67
2017-12-10T10:27:00.296Z,89.67
2017-12-10T10:28:00.288Z,89.67
2017-12-10T10:29:54.728Z,89.67
2017-12-10T10:30:54.776Z,89.86
2017-12-10T10:32:50.728Z,90.15
2017-12-10T10:33:50.736Z,89.77
2017-12-10T10:35:45.184Z,89.48
2017-12-10T10:36:45.224Z,88.92
2017-12-10T10:38:41.153Z,89.29
2017-12-10T10:39:41.201Z,89.86
2017-12-10T10:41:37.112Z,89.77
2017-12-10T10:42:37.145Z,89.20
2017-12-10T10:44:33.176Z,89.29
2017-12-10T10:45:33.137Z,89.86
2017-12-10T10:47:29.096Z,89.77
2017-12-10T10:48:29.113Z,89.67
2017-12-10T10:50:23.569Z,88.92
2017-12-10T10:51:23.593Z,89.29
2017-12-10T10:53:20.529Z,89.67
2017-12-10T10:54:20.561Z,89.29
2017-12-10T10:56:15.034Z,89.58
2017-12-10T10:57:15.050Z,89.11
2017-12-10T10:59:09.498Z,89.58
2017-12-10T11:00:09.521Z,89.11
2017-12-10T11:02:03.994Z,89.29
2017-12-10T11:03:03.994Z,89.11
2017-12-10T11:04:59.940Z,89.48
2017-12-10T11:05:59.971Z,89.67
2017-12-10T11:07:54.426Z,89.29
2017-12-10T11:08:54.434Z,89.20
2017-12-10T11:10:48.874Z,89.58
2017-12-10T11:11:48.923Z,89.67
2017-12-10T11:13:44.934Z,89.48
2017-12-10T11:14:44.898Z,90.05
2017-12-10T11:16:39.354Z,89.48
2017-12-10T11:17:39.394Z,89.39
2017-12-10T11:19:33.851Z,89.48
2017-12-10T11:20:33.850Z,89.86
2017-12-10T11:22:28.339Z,89.96
2017-12-10T11:23:28.339Z,90.15
2017-12-10T11:25:22.818Z,90.81
2017-12-10T11:26:22.819Z,90.34
2017-12-10T11:28:18.747Z,90.58
2017-12-10T11:29:18.795Z,90.95
2017-12-10T11:31:13.227Z,91.33
2017-12-10T11:32:13.274Z,91.19
2017-12-10T11:34:07.715Z,91.38
2017-12-10T11:35:07.739Z,90.95
2017-12-10T11:37:02.212Z,91.52
2017-12-10T11:38:02.219Z,91.52
2017-12-10T11:39:56.675Z,92.09
2017-12-10T11:40:56.708Z,92.38
2017-12-10T11:42:51.156Z,92.19
2017-12-10T11:43:51.188Z,92.47
2017-12-10T11:45:45.644Z,92.94
2017-12-10T11:46:45.644Z,92.66
2017-12-10T11:48:40.092Z,93.13
2017-12-10T11:49:40.123Z,93.23
2017-12-10T11:51:34.580Z,93.23
2017-12-10T11:52:34.604Z,93.61
2017-12-10T11:54:29.076Z,93.42
2017-12-10T11:55:29.068Z,93.51
2017-12-10T11:57:23.541Z,94.08
2017-12-10T11:58:23.548Z,93.99
2017-12-10T12:00:18.028Z,94.27
2017-12-10T12:01:18.037Z,94.18
2017-12-10T12:03:13.989Z,94.56
2017-12-10T12:04:14.005Z,94.65
2017-12-10T12:06:08.484Z,94.93
2017-12-10T12:07:08.493Z,94.56
2017-12-10T12:09:02.925Z,94.93
2017-12-10T12:10:02.957Z,94.65
2017-12-10T12:11:58.933Z,95.03
2017-12-10T12:12:58.956Z,94.56
2017-12-10T12:14:53.381Z,95.03
2017-12-10T12:15:53.420Z,95.22
2017-12-10T12:17:47.877Z,95.22
2017-12-10T12:18:47.885Z,94.93
2017-12-10T12:20:42.325Z,95.41
2017-12-10T12:21:42.341Z,95.12
2017-12-10T12:23:36.805Z,95.31
2017-12-10T12:24:36.837Z,95.12
2017-12-10T12:26:31.310Z,95.60
2017-12-10T12:27:31.342Z,95.79
2017-12-10T12:29:27.261Z,96.45
2017-12-10T12:30:27.294Z,96.17
2017-12-10T12:32:21.734Z,96.73
2017-12-10T12:33:21.766Z,96.55
2017-12-10T12:35:16.286Z,96.45
2017-12-10T12:36:16.239Z,96.64
2017-12-10T12:38:10.715Z,96.55
2017-12-10T12:39:10.718Z,97.02
2017-12-10T12:41:06.662Z,96.83
2017-12-10T12:42:06.694Z,97.11
2017-12-10T12:44:01.153Z,96.36
2017-12-10T12:45:01.167Z,97.30
2017-12-10T12:46:55.630Z,97.21
2017-12-10T12:47:55.655Z,97.30
2017-12-10T12:49:50.111Z,97.21
2017-12-10T12:50:50.119Z,97.11
2017-12-10T12:52:44.578Z,97.21
2017-12-10T12:53:44.598Z,97.11
2017-12-10T12:55:40.616Z,97.68
2017-12-10T12:56:40.606Z,97.21
2017-12-10T12:58:35.017Z,97.30
2017-12-10T12:59:35.047Z,97.21
2017-12-10T13:01:31.023Z,97.49
2017-12-10T13:02:31.023Z,97.40
2017-12-10T13:04:25.474Z,98.06
2017-12-10T13:05:25.487Z,97.97
2017-12-10T13:07:19.995Z,97.49
2017-12-10T13:08:19.995Z,97.40
2017-12-10T13:10:14.432Z,97.68
2017-12-10T13:11:14.439Z,97.78
2017-12-10T13:13:08.911Z,97.40
2017-12-10T13:14:08.936Z,98.25
2017-12-10T13:16:03.376Z,97.40
2017-12-10T13:17:03.400Z,97.87
2017-12-10T13:18:57.863Z,97.97
2017-12-10T13:19:57.872Z,97.87
2017-12-10T13:21:52.328Z,97.92
2017-12-10T13:22:52.344Z,98.16
2017-12-10T13:24:46.832Z,97.78
2017-12-10T13:25:46.840Z,98.01
2017-12-10T13:27:41.288Z,98.68
2017-12-10T13:28:41.301Z,98.68
2017-12-10T13:30:35.780Z,98.49
2017-12-10T13:31:35.776Z,98.01
2017-12-10T13:33:30.233Z,98.68
2017-12-10T13:34:30.256Z,98.49
2017-12-10T13:36:26.225Z,98.96
2017-12-10T13:37:26.279Z,98.77
2017-12-10T13:39:20.680Z,98.39
2017-12-10T13:40:20.698Z,98.86
2017-12-10T13:42:15.154Z,98.77
2017-12-10T13:43:15.170Z,98.77
2017-12-10T13:45:09.658Z,98.68
2017-12-10T13:46:09.650Z,98.68
2017-12-10T13:48:04.106Z,98.68
2017-12-10T13:49:04.162Z,99.33
2017-12-10T13:50:58.602Z,99.43
2017-12-10T13:51:58.602Z,99.43
2017-12-10T13:53:53.051Z,99.43
2017-12-10T13:54:53.090Z,99.43
2017-12-10T13:56:47.522Z,99.99
2017-12-10T13:57:47.562Z,99.99
2017-12-10T13:59:42.002Z,99.99
2017-12-10T14:00:42.043Z,99.99
2017-12-10T14:02:36.482Z,99.71
2017-12-10T14:03:36.498Z,99.81
2017-12-10T14:05:30.932Z,99.62
2017-12-10T14:06:30.971Z,99.99
2017-12-10T14:08:26.441Z,99.81
2017-12-10T14:09:26.479Z,99.71
2017-12-10T14:11:20.954Z,99.99
2017-12-10T14:12:20.922Z,99.99
2017-12-10T14:14:15.394Z,99.99
2017-12-10T14:15:15.402Z,99.99
2017-12-10T14:17:09.826Z,99.99
2017-12-10T14:18:09.857Z,99.99
2017-12-10T14:20:04.321Z,99.99
2017-12-10T14:21:04.337Z,99.99
2017-12-10T14:22:58.962Z,99.99
2017-12-10T14:23:58.970Z,99.99
2017-12-10T14:25:53.401Z,99.99
2017-12-10T14:26:53.441Z,99.99
2017-12-10T14:28:47.816Z,99.99
2017-12-10T14:29:47.848Z,99.99
2017-12-10T14:31:42.313Z,99.99
2017-12-10T14:32:42.305Z,99.90
2017-12-10T14:34:36.768Z,99.99
2017-12-10T14:35:36.793Z,99.99
2017-12-10T14:37:32.793Z,99.99
2017-12-10T14:38:32.825Z,99.99
2017-12-10T14:40:27.233Z,99.99
2017-12-10T14:41:27.265Z,99.99
2017-12-10T14:43:20.793Z,99.99
2017-12-10T14:44:20.865Z,99.99
2017-12-10T14:46:16.753Z,99.99
2017-12-10T14:47:16.769Z,99.81
2017-12-10T14:49:12.716Z,99.99
2017-12-10T14:50:12.753Z,99.99
2017-12-10T14:52:08.698Z,99.99
2017-12-10T14:53:08.714Z,99.99
2017-12-10T14:55:03.154Z,99.99
2017-12-10T14:56:03.178Z,99.99
2017-12-10T14:57:59.162Z,99.99
2017-12-10T14:58:59.250Z,99.99
2017-12-10T15:00:54.618Z,99.99
2017-12-10T15:01:54.626Z,99.99
2017-12-10T15:03:50.589Z,99.99
2017-12-10T15:04:50.578Z,99.99
2017-12-10T15:06:46.602Z,99.99
2017-12-10T15:07:46.626Z,99.99
2017-12-10T15:09:41.083Z,99.99
2017-12-10T15:10:41.099Z,99.99
2017-12-10T15:12:35.554Z,99.99
2017-12-10T15:13:35.628Z,99.99
2017-12-10T15:15:31.603Z,99.99
2017-12-10T15:16:31.571Z,99.99
2017-12-10T15:18:26.026Z,99.99
2017-12-10T15:19:26.035Z,99.99
2017-12-10T15:21:22.027Z,99.99
2017-12-10T15:22:22.044Z,99.99
2017-12-10T15:24:16.491Z,99.99
2017-12-10T15:25:16.523Z,99.99
2017-12-10T15:27:10.957Z,99.99
2017-12-10T15:28:10.979Z,99.99
2017-12-10T15:30:05.422Z,99.99
2017-12-10T15:31:05.507Z,99.99
2017-12-10T15:32:59.915Z,99.99
2017-12-10T15:33:59.954Z,99.99
2017-12-10T15:35:55.879Z,99.99
2017-12-10T15:36:55.913Z,99.99
2017-12-10T15:38:50.370Z,99.99
2017-12-10T15:39:50.402Z,99.99
2017-12-10T15:41:44.888Z,99.99
2017-12-10T15:42:44.897Z,99.99
2017-12-10T15:44:40.833Z,99.99
2017-12-10T15:45:40.841Z,99.99
2017-12-10T15:47:35.345Z,99.99
2017-12-10T15:48:35.322Z,99.99
2017-12-10T15:50:29.825Z,99.99
2017-12-10T15:51:29.793Z,99.99
2017-12-10T15:53:24.313Z,99.99
2017-12-10T15:54:24.262Z,99.99
2017-12-10T15:56:20.222Z,99.99
2017-12-10T15:57:20.245Z,99.99
2017-12-10T15:59:14.708Z,99.99
2017-12-10T16:00:14.703Z,99.99
2017-12-10T16:02:10.673Z,99.99
2017-12-10T16:03:10.680Z,99.99
2017-12-10T16:05:06.655Z,99.99
2017-12-10T16:06:06.655Z,99.99
2017-12-10T16:08:01.151Z,99.99
2017-12-10T16:09:01.136Z,99.99
2017-12-10T16:10:54.599Z,99.99
2017-12-10T16:11:54.676Z,99.99
2017-12-10T16:13:50.645Z,99.99
2017-12-10T16:14:50.628Z,99.99
2017-12-10T16:16:45.172Z,99.99
2017-12-10T16:17:45.084Z,99.99
2017-12-10T16:19:39.589Z,99.99
2017-12-10T16:20:39.580Z,99.99
2017-12-10T16:22:34.045Z,99.99
2017-12-10T16:23:34.037Z,99.99
2017-12-10T16:25:28.557Z,99.99
2017-12-10T16:26:28.509Z,99.99
2017-12-10T16:28:24.502Z,99.99
2017-12-10T16:29:24.478Z,99.99
2017-12-10T16:31:19.071Z,99.99
2017-12-10T16:32:18.950Z,99.99
2017-12-10T16:34:13.454Z,99.99
2017-12-10T16:35:13.509Z,99.99
2017-12-10T16:37:07.901Z,99.99
2017-12-10T16:38:07.980Z,99.99
2017-12-10T16:40:02.437Z,99.99
2017-12-10T16:41:02.395Z,99.99
2017-12-10T16:42:56.867Z,99.99
2017-12-10T16:43:56.871Z,99.99
2017-12-10T16:45:51.331Z,99.99
2017-12-10T16:46:51.324Z,99.99
2017-12-10T16:48:45.796Z,99.99
2017-12-10T16:49:45.892Z,99.99
2017-12-10T16:51:41.805Z,99.99
2017-12-10T16:52:41.777Z,99.99
2017-12-10T16:54:36.505Z,99.99
2017-12-10T16:55:36.769Z,99.99
2017-12-10T16:57:29.712Z,99.99
2017-12-10T16:58:30.833Z,99.99
2017-12-10T17:00:22.937Z,99.99
2017-12-10T17:01:22.753Z,99.99
2017-12-10T17:03:16.280Z,99.99
2017-12-10T17:04:16.241Z,99.99
2017-12-10T17:06:10.699Z,99.99
2017-12-10T17:07:10.722Z,99.99
2017-12-10T17:09:04.234Z,99.99
2017-12-10T17:10:04.210Z,99.99
2017-12-10T17:11:57.152Z,99.99
2017-12-10T17:12:57.184Z,99.99
2017-12-10T17:14:50.679Z,99.99
2017-12-10T17:15:50.231Z,99.99
2017-12-10T17:17:44.631Z,99.99
2017-12-10T17:18:44.623Z,99.99
2017-12-10T17:20:39.141Z,99.99
2017-12-10T17:21:39.152Z,99.99
2017-12-10T17:23:32.662Z,99.99
2017-12-10T17:24:32.589Z,99.99
2017-12-10T17:26:26.558Z,99.99
2017-12-10T17:27:25.622Z,99.99
2017-12-10T17:29:20.130Z,99.99
2017-12-10T17:30:21.058Z,99.99
2017-12-10T17:32:13.650Z,99.99
2017-12-10T17:33:13.673Z,99.99
2017-12-10T17:35:06.626Z,99.99
2017-12-10T17:36:06.650Z,99.99
2017-12-10T17:37:59.659Z,99.99
2017-12-10T17:38:59.682Z,99.99
2017-12-10T17:40:54.266Z,99.99
2017-12-10T17:41:54.234Z,99.99
2017-12-10T17:43:48.802Z,99.99
2017-12-10T17:44:48.842Z,99.99
2017-12-10T17:46:42.313Z,99.99
2017-12-10T17:47:42.363Z,99.99
2017-12-10T17:49:37.011Z,99.99
2017-12-10T17:50:36.818Z,99.99
2017-12-10T17:52:32.770Z,99.99
2017-12-10T17:53:32.779Z,99.99
2017-12-10T17:55:27.338Z,99.99
2017-12-10T17:56:27.321Z,99.99
2017-12-10T17:58:20.775Z,99.99
2017-12-10T17:59:20.817Z,99.99
2017-12-10T18:01:15.399Z,99.99
2017-12-10T18:02:15.319Z,99.99
2017-12-10T18:04:09.479Z,99.99
2017-12-10T18:05:09.647Z,99.99
2017-12-10T18:07:04.911Z,99.99
2017-12-10T18:08:04.912Z,99.99
2017-12-10T18:09:59.317Z,99.99
2017-12-10T18:10:59.375Z,99.99
2017-12-10T18:12:55.431Z,99.99
2017-12-10T18:13:55.440Z,99.99
2017-12-10T18:15:49.318Z,99.99
2017-12-10T18:16:48.808Z,99.99
2017-12-10T18:18:44.822Z,99.99
2017-12-10T18:19:44.853Z,99.99
2017-12-10T18:21:40.891Z,99.99
2017-12-10T18:22:40.882Z,99.99
2017-12-10T18:24:36.763Z,99.99
2017-12-10T18:25:36.763Z,99.99
2017-12-10T18:27:32.803Z,99.99
2017-12-10T18:28:32.779Z,99.99
2017-12-10T18:30:27.308Z,99.99
2017-12-10T18:31:27.235Z,99.99
2017-12-10T18:33:20.851Z,99.99
2017-12-10T18:34:21.283Z,99.99
2017-12-10T18:36:18.436Z,99.99
2017-12-10T18:37:16.436Z,99.99
2017-12-10T18:39:12.385Z,99.99
2017-12-10T18:40:12.401Z,99.99
2017-12-10T18:42:08.293Z,99.99